createdAt,value
2023-05-18T00:01:57.649Z,88.58
2023-05-18T00:04:02.095Z,88.59
2023-05-18T00:06:07.449Z,88.20
2023-05-18T00:08:10.563Z,88.04
2023-05-18T00:10:13.958Z,88.79
2023-05-18T00:12:17.271Z,87.76
2023-05-18T00:14:20.926Z,88.71
2023-05-18T00:16:25.495Z,88.85
2023-05-18T00:18:28.761Z,88.34
2023-05-18T00:20:31.912Z,89.08
2023-05-18T00:22:35.052Z,88.71
2023-05-18T00:24:38.222Z,87.69
2023-05-18T00:26:55.147Z,88.98
2023-05-18T00:29:06.689Z,88.44
2023-05-18T00:31:30.398Z,88.47
2023-05-18T00:33:50.035Z,88.44
2023-05-18T00:36:03.472Z,88.30
2023-05-18T00:38:12.059Z,87.62
2023-05-18T00:40:15.166Z,87.88
2023-05-18T00:42:21.016Z,88.19
2023-05-18T00:44:24.266Z,88.00
2023-05-18T00:46:29.561Z,88.50
2023-05-18T00:48:32.761Z,87.49
2023-05-18T00:50:36.325Z,87.96
2023-05-18T00:52:39.791Z,88.96
2023-05-18T00:54:43.708Z,88.61
2023-05-18T00:56:48.290Z,87.87
2023-05-18T00:58:55.524Z,89.07
2023-05-18T01:00:58.898Z,89.12
2023-05-18T01:03:03.571Z,88.07
2023-05-18T01:05:07.397Z,87.91
2023-05-18T01:07:12.925Z,87.97
2023-05-18T01:09:16.331Z,88.33
2023-05-18T01:11:27.216Z,88.49
2023-05-18T01:13:36.002Z,88.34
2023-05-18T01:15:40.509Z,87.66
2023-05-18T01:18:15.305Z,88.16
2023-05-18T01:20:33.581Z,86.83
2023-05-18T01:22:50.542Z,85.21
2023-05-18T01:24:59.370Z,84.91
2023-05-18T01:27:07.302Z,84.62
2023-05-18T01:29:11.465Z,84.46
2023-05-18T01:31:16.088Z,84.65
2023-05-18T01:33:19.712Z,84.12
2023-05-18T01:35:22.883Z,84.44
2023-05-18T01:37:26.964Z,83.79
2023-05-18T01:39:30.168Z,83.65
2023-05-18T01:41:36.774Z,84.65
2023-05-18T01:43:47.012Z,84.26
2023-05-18T01:45:52.771Z,83.47
2023-05-18T01:48:00.315Z,83.87
2023-05-18T01:50:05.283Z,84.32
2023-05-18T01:52:11.637Z,83.73
2023-05-18T01:54:17.800Z,83.57
2023-05-18T01:56:21.856Z,83.49
2023-05-18T01:58:25.442Z,83.20
2023-05-18T02:00:30.397Z,83.12
2023-05-18T02:02:35.128Z,82.59
2023-05-18T02:04:39.013Z,82.98
2023-05-18T02:06:42.482Z,83.06
2023-05-18T02:08:45.853Z,82.72
2023-05-18T02:10:49.204Z,83.94
2023-05-18T02:12:53.903Z,83.77
2023-05-18T02:14:58.492Z,83.86
2023-05-18T02:17:03.092Z,84.34
2023-05-18T02:19:06.478Z,82.75
2023-05-18T02:21:10.102Z,83.01
2023-05-18T02:23:15.938Z,83.05
2023-05-18T02:25:19.301Z,83.41
2023-05-18T02:27:22.975Z,83.19
2023-05-18T02:29:26.196Z,83.10
2023-05-18T02:31:31.072Z,83.50
2023-05-18T02:33:39.853Z,83.01
2023-05-18T02:35:42.016Z,83.27
2023-05-18T02:37:45.639Z,83.89
2023-05-18T02:39:49.132Z,82.92
2023-05-18T02:41:52.280Z,83.55
2023-05-18T02:43:56.084Z,82.90
2023-05-18T02:45:59.681Z,82.97
2023-05-18T02:48:04.105Z,83.69
2023-05-18T02:50:09.603Z,82.69
2023-05-18T02:52:12.849Z,83.00
2023-05-18T02:54:16.289Z,83.18
2023-05-18T02:56:20.298Z,82.78
2023-05-18T02:58:32.155Z,82.83
2023-05-18T03:00:50.225Z,83.88
2023-05-18T03:02:53.867Z,82.63
2023-05-18T03:04:57.478Z,83.36
2023-05-18T03:07:02.882Z,82.61
2023-05-18T03:09:06.195Z,82.70
2023-05-18T03:11:15.056Z,82.41
2023-05-18T03:13:19.701Z,82.69
2023-05-18T03:15:23.192Z,83.07
2023-05-18T03:17:26.420Z,82.61
2023-05-18T03:19:29.578Z,82.63
2023-05-18T03:21:36.201Z,82.04
2023-05-18T03:23:41.112Z,82.54
2023-05-18T03:25:44.832Z,81.85
2023-05-18T03:27:48.323Z,81.44
2023-05-18T03:29:53.127Z,81.14
2023-05-18T03:31:56.198Z,81.80
2023-05-18T03:33:59.494Z,81.78
2023-05-18T03:36:04.846Z,82.26
2023-05-18T03:38:08.734Z,82.23
2023-05-18T03:40:17.151Z,81.56
2023-05-18T03:42:21.717Z,81.44
2023-05-18T03:44:24.916Z,82.02
2023-05-18T03:46:28.301Z,81.09
2023-05-18T03:48:31.868Z,82.06
2023-05-18T03:50:35.207Z,81.45
2023-05-18T03:52:41.620Z,81.75
2023-05-18T03:54:45.172Z,80.65
2023-05-18T03:56:49.767Z,81.48
2023-05-18T03:58:53.488Z,81.18
2023-05-18T04:00:57.234Z,81.52
2023-05-18T04:03:03.392Z,81.96
2023-05-18T04:05:08.158Z,81.40
2023-05-18T04:07:11.803Z,80.28
2023-05-18T04:09:17.326Z,80.78
2023-05-18T04:11:21.469Z,81.21
2023-05-18T04:13:25.987Z,80.17
2023-05-18T04:15:29.421Z,80.69
2023-05-18T04:17:34.042Z,81.17
2023-05-18T04:19:37.981Z,80.66
2023-05-18T04:21:43.763Z,80.78
2023-05-18T04:23:47.278Z,79.95
2023-05-18T04:25:50.510Z,80.36
2023-05-18T04:27:54.498Z,79.86
2023-05-18T04:30:00.162Z,80.43
2023-05-18T04:32:03.390Z,79.22
2023-05-18T04:34:07.014Z,79.43
2023-05-18T04:36:10.387Z,79.97
2023-05-18T04:38:14.993Z,80.49
2023-05-18T04:40:18.559Z,79.52
2023-05-18T04:42:23.650Z,79.61
2023-05-18T04:44:27.802Z,79.59
2023-05-18T04:46:34.907Z,79.01
2023-05-18T04:48:38.961Z,79.39
2023-05-18T04:50:42.059Z,78.09
2023-05-18T04:52:48.735Z,77.90
2023-05-18T04:54:53.705Z,77.67
2023-05-18T04:56:56.774Z,78.24
2023-05-18T04:59:00.152Z,77.80
2023-05-18T05:01:06.905Z,78.15
2023-05-18T05:03:11.662Z,77.74
2023-05-18T05:05:14.832Z,77.27
2023-05-18T05:07:18.053Z,76.74
2023-05-18T05:09:22.810Z,77.03
2023-05-18T05:11:25.990Z,76.64
2023-05-18T05:13:29.175Z,76.17
2023-05-18T05:15:34.389Z,76.22
2023-05-18T05:17:37.610Z,76.05
2023-05-18T05:19:45.560Z,76.14
2023-05-18T05:21:48.890Z,75.77
2023-05-18T05:23:52.120Z,75.14
2023-05-18T05:25:55.391Z,75.31
2023-05-18T05:27:58.441Z,75.15
2023-05-18T05:30:01.912Z,74.48
2023-05-18T05:32:06.643Z,75.51
2023-05-18T05:34:11.723Z,75.95
2023-05-18T05:36:17.022Z,74.13
2023-05-18T05:38:21.623Z,73.83
2023-05-18T05:40:24.767Z,73.82
2023-05-18T05:42:30.119Z,73.05
2023-05-18T05:44:33.707Z,71.91
2023-05-18T05:46:53.825Z,72.68
2023-05-18T05:49:44.858Z,70.83
2023-05-18T05:51:49.982Z,70.19
2023-05-18T05:53:54.665Z,69.32
2023-05-18T05:55:57.971Z,70.47
2023-05-18T05:58:01.067Z,69.44
2023-05-18T06:00:05.912Z,70.96
2023-05-18T06:06:00.195Z,70.87
2023-05-18T06:08:06.705Z,69.83
2023-05-18T06:10:10.198Z,70.21
2023-05-18T06:12:13.618Z,69.02
2023-05-18T06:14:17.150Z,70.20
2023-05-18T06:16:20.823Z,68.01
2023-05-18T06:18:25.528Z,68.01
2023-05-18T06:20:38.805Z,67.24
2023-05-18T06:22:42.398Z,67.44
2023-05-18T06:25:08.448Z,66.89
2023-05-18T06:27:28.618Z,65.39
2023-05-18T06:29:46.466Z,66.72
2023-05-18T06:32:00.221Z,65.28
2023-05-18T06:34:18.415Z,64.81
2023-05-18T06:36:21.644Z,65.60
2023-05-18T06:38:25.017Z,64.73
2023-05-18T06:40:30.584Z,64.28
2023-05-18T06:42:35.101Z,65.61
2023-05-18T06:44:59.424Z,64.42
2023-05-18T06:47:48.660Z,64.13
2023-05-18T06:49:51.983Z,64.62
2023-05-18T06:51:55.262Z,64.64
2023-05-18T06:53:58.501Z,63.92
2023-05-18T06:56:04.989Z,62.43
2023-05-18T06:58:08.981Z,62.81
2023-05-18T07:00:13.940Z,63.46
2023-05-18T07:02:17.140Z,63.30
2023-05-18T07:04:20.314Z,63.80
2023-05-18T07:06:23.510Z,63.03
2023-05-18T07:08:26.624Z,61.58
2023-05-18T07:10:30.725Z,61.94
2023-05-18T07:12:35.221Z,61.20
2023-05-18T07:14:38.462Z,61.41
2023-05-18T07:16:41.655Z,61.22
2023-05-18T07:18:44.972Z,61.13
2023-05-18T07:20:48.211Z,62.11
2023-05-18T07:22:51.515Z,61.56
2023-05-18T07:24:54.637Z,59.40
2023-05-18T07:27:00.041Z,61.17
2023-05-18T07:29:05.448Z,59.84
2023-05-18T07:31:08.628Z,58.53
2023-05-18T07:33:11.857Z,61.70
2023-05-18T07:35:16.786Z,59.90
2023-05-18T07:37:20.023Z,60.25
2023-05-18T07:39:28.548Z,60.90
2023-05-18T07:41:32.292Z,58.75
2023-05-18T07:43:37.555Z,58.04
2023-05-18T07:45:42.060Z,59.31
2023-05-18T07:47:46.484Z,57.94
2023-05-18T07:49:49.815Z,57.51
2023-05-18T07:51:53.516Z,57.22
2023-05-18T07:53:56.708Z,58.22
2023-05-18T07:56:00.273Z,58.02
2023-05-18T07:58:03.488Z,59.89
2023-05-18T08:00:10.249Z,57.58
2023-05-18T08:02:19.919Z,58.42
2023-05-18T08:04:23.143Z,57.31
2023-05-18T08:06:26.328Z,57.69
2023-05-18T08:08:30.036Z,57.59
2023-05-18T08:10:33.153Z,57.52
2023-05-18T08:12:36.338Z,58.54
2023-05-18T08:14:39.501Z,57.19
2023-05-18T08:16:42.639Z,56.86
2023-05-18T08:18:47.122Z,56.35
2023-05-18T08:20:53.876Z,57.44
2023-05-18T08:22:56.972Z,57.64
2023-05-18T08:25:00.964Z,56.46
2023-05-18T08:27:04.454Z,54.92
2023-05-18T08:29:10.131Z,56.81
2023-05-18T08:31:13.590Z,56.16
2023-05-18T08:33:16.708Z,54.52
2023-05-18T08:35:21.298Z,55.25
2023-05-18T08:37:29.606Z,55.23
2023-05-18T08:39:33.874Z,54.58
2023-05-18T08:41:40.378Z,56.83
2023-05-18T08:43:47.230Z,56.13
2023-05-18T08:45:53.868Z,51.95
2023-05-18T08:47:58.154Z,53.33
2023-05-18T08:50:04.339Z,53.80
2023-05-18T08:52:10.005Z,54.69
2023-05-18T08:54:13.260Z,54.80
2023-05-18T08:56:16.671Z,55.25
2023-05-18T08:58:21.780Z,54.19
2023-05-18T09:00:25.334Z,54.42
2023-05-18T09:02:28.710Z,54.34
2023-05-18T09:04:34.735Z,56.28
2023-05-18T09:06:38.635Z,55.66
2023-05-18T09:08:43.623Z,55.89
2023-05-18T09:10:50.184Z,55.54
2023-05-18T09:12:53.669Z,55.21
2023-05-18T09:14:57.149Z,54.40
2023-05-18T09:17:00.495Z,55.04
2023-05-18T09:19:03.588Z,55.45
2023-05-18T09:21:06.976Z,57.07
2023-05-18T09:23:12.006Z,55.23
2023-05-18T09:25:17.839Z,55.18
2023-05-18T09:27:21.728Z,54.85
2023-05-18T09:29:25.249Z,55.88
2023-05-18T09:31:28.563Z,55.57
2023-05-18T09:33:37.514Z,58.12
2023-05-18T09:35:42.564Z,57.18
2023-05-18T09:37:45.672Z,54.26
2023-05-18T09:39:59.988Z,55.48
2023-05-18T09:42:06.112Z,55.87
2023-05-18T09:44:10.117Z,55.12
2023-05-18T09:46:14.225Z,53.86
2023-05-18T09:48:18.081Z,55.27
2023-05-18T09:50:21.946Z,55.34
2023-05-18T09:52:25.236Z,54.53
2023-05-18T09:54:28.449Z,53.26
2023-05-18T09:56:31.749Z,53.30
2023-05-18T09:58:36.589Z,53.87
2023-05-18T10:00:42.757Z,53.50
2023-05-18T10:02:48.981Z,53.36
2023-05-18T10:04:52.421Z,52.76
2023-05-18T10:06:55.771Z,54.00
2023-05-18T10:08:59.432Z,54.11
2023-05-18T10:11:02.847Z,53.38
2023-05-18T10:13:05.996Z,52.82
2023-05-18T10:15:14.563Z,54.41
2023-05-18T10:17:18.035Z,54.26
2023-05-18T10:19:21.709Z,54.47
2023-05-18T10:21:26.013Z,56.52
2023-05-18T10:23:38.469Z,53.92
2023-05-18T10:25:43.915Z,55.18
2023-05-18T10:27:49.012Z,53.46
2023-05-18T10:29:52.744Z,54.07
2023-05-18T10:32:06.104Z,53.47
2023-05-18T10:34:11.686Z,52.57
2023-05-18T10:36:14.747Z,54.55
2023-05-18T10:38:22.182Z,53.21
2023-05-18T10:40:25.809Z,54.43
2023-05-18T10:42:31.284Z,54.62
2023-05-18T10:44:34.376Z,53.30
2023-05-18T10:46:38.434Z,53.17
2023-05-18T10:48:43.909Z,52.92
2023-05-18T10:50:49.466Z,53.76
2023-05-18T10:52:53.239Z,53.89
2023-05-18T10:54:56.422Z,53.51
2023-05-18T10:56:59.603Z,54.70
2023-05-18T10:59:02.816Z,54.51
2023-05-18T11:01:09.259Z,52.95
2023-05-18T11:03:14.446Z,54.27
2023-05-18T11:05:24.956Z,53.53
2023-05-18T11:07:30.557Z,54.17
2023-05-18T11:09:34.744Z,53.85
2023-05-18T11:11:54.173Z,53.69
2023-05-18T11:14:02.160Z,54.24
2023-05-18T11:16:06.887Z,53.09
2023-05-18T11:18:16.577Z,52.43
2023-05-18T11:20:26.768Z,54.23
2023-05-18T11:22:42.455Z,54.42
2023-05-18T11:24:45.467Z,53.53
2023-05-18T11:26:49.373Z,53.25
2023-05-18T11:28:53.731Z,52.95
2023-05-18T11:30:57.128Z,52.42
2023-05-18T11:33:09.844Z,52.89
2023-05-18T11:35:25.710Z,55.53
2023-05-18T11:37:50.823Z,53.98
2023-05-18T11:40:00.110Z,55.85
2023-05-18T11:42:07.900Z,53.09
2023-05-18T11:44:18.639Z,52.15
2023-05-18T11:46:22.635Z,54.30
2023-05-18T11:48:29.983Z,54.63
2023-05-18T11:50:34.645Z,54.35
2023-05-18T11:52:47.017Z,53.07
2023-05-18T11:54:52.860Z,54.52
2023-05-18T11:56:56.735Z,53.90
2023-05-18T11:59:15.997Z,55.88
2023-05-18T12:01:19.366Z,56.18
2023-05-18T12:03:24.981Z,55.47
2023-05-18T12:05:31.753Z,55.11
2023-05-18T12:07:37.135Z,54.24
2023-05-18T12:09:42.718Z,55.23
2023-05-18T12:11:45.731Z,55.00
2023-05-18T12:13:50.323Z,54.47
2023-05-18T12:15:58.226Z,55.01
2023-05-18T12:18:02.266Z,53.96
2023-05-18T12:20:05.950Z,54.13
2023-05-18T12:22:10.032Z,53.05
2023-05-18T12:24:14.485Z,53.50
2023-05-18T12:26:20.582Z,54.47
2023-05-18T12:28:26.879Z,56.52
2023-05-18T12:30:36.070Z,55.07
2023-05-18T12:32:40.778Z,55.43
2023-05-18T12:34:45.519Z,54.86
2023-05-18T12:36:54.417Z,53.98
2023-05-18T12:38:57.428Z,54.99
2023-05-18T12:41:03.880Z,54.12
2023-05-18T12:43:07.465Z,54.91
2023-05-18T12:45:12.697Z,55.59
2023-05-18T12:47:15.905Z,54.14
2023-05-18T12:49:20.346Z,53.16
2023-05-18T12:51:23.479Z,54.06
2023-05-18T12:53:26.880Z,54.12
2023-05-18T12:55:32.131Z,53.52
2023-05-18T12:57:41.835Z,52.82
2023-05-18T12:59:51.008Z,52.25
2023-05-18T13:01:54.891Z,54.91
2023-05-18T13:03:59.355Z,54.45
2023-05-18T13:06:06.592Z,53.83
2023-05-18T13:08:09.943Z,54.12
2023-05-18T13:10:17.872Z,53.74
2023-05-18T13:12:36.712Z,55.03
2023-05-18T13:14:43.428Z,54.25
2023-05-18T13:16:46.964Z,52.57
2023-05-18T13:18:57.455Z,53.19
2023-05-18T13:21:00.763Z,54.02
2023-05-18T13:23:04.871Z,54.59
2023-05-18T13:25:09.159Z,54.72
2023-05-18T13:27:16.310Z,55.03
2023-05-18T13:29:19.396Z,54.47
2023-05-18T13:31:25.111Z,54.44
2023-05-18T13:33:28.384Z,54.26
2023-05-18T13:35:31.646Z,54.64
2023-05-18T13:37:34.912Z,54.06
2023-05-18T13:39:37.901Z,52.63
2023-05-18T13:41:41.036Z,52.90
2023-05-18T13:43:45.616Z,53.36
2023-05-18T13:45:48.942Z,51.58
2023-05-18T13:47:54.613Z,53.05
2023-05-18T13:49:57.664Z,53.35
2023-05-18T13:52:01.172Z,53.90
2023-05-18T13:54:07.867Z,53.16
2023-05-18T13:56:10.905Z,53.37
2023-05-18T13:58:13.948Z,52.97
2023-05-18T14:00:18.038Z,52.42
2023-05-18T14:02:21.250Z,52.88
2023-05-18T14:04:25.785Z,53.27
2023-05-18T14:06:28.858Z,52.93
2023-05-18T14:08:31.991Z,53.47
2023-05-18T14:10:35.045Z,52.41
2023-05-18T14:12:38.139Z,52.81
2023-05-18T14:14:43.155Z,53.19
2023-05-18T14:16:46.443Z,52.46
2023-05-18T14:18:49.558Z,54.26
2023-05-18T14:20:53.963Z,53.40
2023-05-18T14:22:57.011Z,54.08
2023-05-18T14:25:00.931Z,53.80
2023-05-18T14:27:04.250Z,53.33
2023-05-18T14:29:07.360Z,54.34
2023-05-18T14:31:10.605Z,54.20
2023-05-18T14:33:13.855Z,54.79
2023-05-18T14:35:17.022Z,53.78
2023-05-18T14:37:21.364Z,54.57
2023-05-18T14:39:24.415Z,54.22
2023-05-18T14:41:27.549Z,53.50
2023-05-18T14:43:30.711Z,53.17
2023-05-18T14:45:33.793Z,54.03
2023-05-18T14:47:36.882Z,53.96
2023-05-18T14:49:40.005Z,54.16
2023-05-18T14:51:43.445Z,53.84
2023-05-18T14:53:47.865Z,52.88
2023-05-18T14:55:51.036Z,52.86
2023-05-18T14:57:54.088Z,54.29
2023-05-18T14:59:58.252Z,54.16
2023-05-18T15:02:01.563Z,54.37
2023-05-18T15:04:04.825Z,53.65
2023-05-18T15:06:08.123Z,52.45
2023-05-18T15:08:11.158Z,53.25
2023-05-18T15:10:15.776Z,53.70
2023-05-18T15:12:19.766Z,53.13
2023-05-18T15:14:22.924Z,52.82
2023-05-18T15:16:26.048Z,52.70
2023-05-18T15:18:29.463Z,53.05
2023-05-18T15:20:32.976Z,53.22
2023-05-18T15:22:38.202Z,53.03
2023-05-18T15:24:41.519Z,53.02
2023-05-18T15:26:46.190Z,51.95
2023-05-18T15:28:50.564Z,52.46
2023-05-18T15:30:54.466Z,53.02
2023-05-18T15:32:57.773Z,51.64
2023-05-18T15:35:00.842Z,52.38
2023-05-18T15:37:03.896Z,52.10
2023-05-18T15:39:06.869Z,52.13
2023-05-18T15:41:11.528Z,53.23
2023-05-18T15:43:16.026Z,52.59
2023-05-18T15:45:19.127Z,52.21
2023-05-18T15:47:22.333Z,52.46
2023-05-18T15:49:25.546Z,52.69
2023-05-18T15:51:28.775Z,52.63
2023-05-18T15:53:32.358Z,52.56
2023-05-18T15:55:35.425Z,52.23
2023-05-18T15:57:38.631Z,52.05
2023-05-18T15:59:43.707Z,52.31
2023-05-18T16:01:49.656Z,52.40
2023-05-18T16:03:52.969Z,51.61
2023-05-18T16:05:56.182Z,51.19
2023-05-18T16:07:59.613Z,52.56
2023-05-18T16:10:02.712Z,52.76
2023-05-18T16:12:06.481Z,52.03
2023-05-18T16:14:09.538Z,51.54
2023-05-18T16:16:14.208Z,52.46
2023-05-18T16:18:17.419Z,52.36
2023-05-18T16:20:21.140Z,54.00
2023-05-18T16:22:24.217Z,51.92
2023-05-18T16:24:27.351Z,52.00
2023-05-18T16:26:30.409Z,52.02
2023-05-18T16:28:33.524Z,51.84
2023-05-18T16:30:36.574Z,52.16
2023-05-18T16:32:43.189Z,52.80
2023-05-18T16:34:46.382Z,52.56
2023-05-18T16:36:49.547Z,52.75
2023-05-18T16:38:52.629Z,52.37
2023-05-18T16:40:55.691Z,52.39
2023-05-18T16:42:58.779Z,52.55
2023-05-18T16:45:01.811Z,52.41
2023-05-18T16:47:05.039Z,52.44
2023-05-18T16:49:09.452Z,52.30
2023-05-18T16:51:12.528Z,51.83
2023-05-18T16:53:15.627Z,52.02
2023-05-18T16:55:18.772Z,52.32
2023-05-18T16:57:22.214Z,52.39
2023-05-18T16:59:25.621Z,52.96
2023-05-18T17:01:30.760Z,52.84
2023-05-18T17:03:34.363Z,53.62
2023-05-18T17:05:39.304Z,52.78
2023-05-18T17:07:42.351Z,52.47
2023-05-18T17:09:45.499Z,52.90
2023-05-18T17:11:48.585Z,52.83
2023-05-18T17:13:52.173Z,52.82
2023-05-18T17:15:55.334Z,52.31
2023-05-18T17:17:58.436Z,52.50
2023-05-18T17:20:02.131Z,52.49
2023-05-18T17:22:09.480Z,53.68
2023-05-18T17:24:12.721Z,53.00
2023-05-18T17:26:15.864Z,53.96
2023-05-18T17:28:18.952Z,53.69
2023-05-18T17:30:22.161Z,52.63
2023-05-18T17:32:25.196Z,53.36
2023-05-18T17:34:30.512Z,53.29
2023-05-18T17:36:33.606Z,53.17
2023-05-18T17:38:38.035Z,52.95
2023-05-18T17:40:41.376Z,52.93
2023-05-18T17:42:44.415Z,52.68
2023-05-18T17:44:47.606Z,54.01
2023-05-18T17:46:50.966Z,53.65
2023-05-18T17:48:54.069Z,53.59
2023-05-18T17:50:57.245Z,53.65
2023-05-18T17:53:00.327Z,53.58
2023-05-18T17:55:05.043Z,53.69
2023-05-18T17:57:08.063Z,53.83
2023-05-18T17:59:11.184Z,53.92
2023-05-18T18:01:14.394Z,53.36
2023-05-18T18:03:20.445Z,54.02
2023-05-18T18:05:23.720Z,53.75
2023-05-18T18:07:26.889Z,53.35
2023-05-18T18:09:30.142Z,53.75
2023-05-18T18:11:34.825Z,53.72
2023-05-18T18:13:38.187Z,53.28
2023-05-18T18:15:41.372Z,53.56
2023-05-18T18:17:44.740Z,54.21
2023-05-18T18:19:47.902Z,53.74
2023-05-18T18:21:51.174Z,54.04
2023-05-18T18:23:54.299Z,53.83
2023-05-18T18:25:57.330Z,53.44
2023-05-18T18:28:01.844Z,53.88
2023-05-18T18:30:05.667Z,55.03
2023-05-18T18:32:09.021Z,54.49
2023-05-18T18:34:12.480Z,54.15
2023-05-18T18:36:15.956Z,53.90
2023-05-18T18:38:19.083Z,54.48
2023-05-18T18:40:22.309Z,55.51
2023-05-18T18:42:25.888Z,55.53
2023-05-18T18:44:30.397Z,54.31
2023-05-18T18:46:33.605Z,55.77
2023-05-18T18:48:37.225Z,56.00
2023-05-18T18:50:40.364Z,55.73
2023-05-18T18:52:43.462Z,56.69
2023-05-18T18:54:46.628Z,55.15
2023-05-18T18:56:50.177Z,56.59
2023-05-18T18:58:53.339Z,58.17
2023-05-18T19:00:57.841Z,56.94
2023-05-18T19:03:01.254Z,57.48
2023-05-18T19:05:05.514Z,58.51
2023-05-18T19:07:08.840Z,58.61
2023-05-18T19:09:11.936Z,59.53
2023-05-18T19:11:15.095Z,58.50
2023-05-18T19:13:18.296Z,58.31
2023-05-18T19:15:22.331Z,58.79
2023-05-18T19:17:27.039Z,60.30
2023-05-18T19:19:32.603Z,59.33
2023-05-18T19:21:36.088Z,58.64
2023-05-18T19:23:39.330Z,58.42
2023-05-18T19:25:42.518Z,57.75
2023-05-18T19:27:46.109Z,58.55
2023-05-18T19:29:49.495Z,60.81
2023-05-18T19:31:54.618Z,60.43
2023-05-18T19:34:00.007Z,60.72
2023-05-18T19:36:04.218Z,62.14
2023-05-18T19:38:07.397Z,62.30
2023-05-18T19:40:10.661Z,61.40
2023-05-18T19:42:13.832Z,61.60
2023-05-18T19:44:17.008Z,61.78
2023-05-18T19:46:20.480Z,60.61
2023-05-18T19:48:23.890Z,61.41
2023-05-18T19:50:28.520Z,60.42
2023-05-18T19:52:32.232Z,61.22
2023-05-18T19:54:35.984Z,61.44
2023-05-18T19:56:39.432Z,61.89
2023-05-18T19:58:42.842Z,62.07
2023-05-18T20:00:46.073Z,62.84
2023-05-18T20:02:49.302Z,63.32
2023-05-18T20:04:53.405Z,62.11
2023-05-18T20:06:59.993Z,62.85
2023-05-18T20:09:03.879Z,62.62
2023-05-18T20:11:07.321Z,63.85
2023-05-18T20:13:10.680Z,62.77
2023-05-18T20:15:14.266Z,62.29
2023-05-18T20:17:17.372Z,63.96
2023-05-18T20:19:22.172Z,63.18
2023-05-18T20:21:25.686Z,63.27
2023-05-18T20:23:30.205Z,64.33
2023-05-18T20:25:35.334Z,64.48
2023-05-18T20:27:38.673Z,63.51
2023-05-18T20:29:41.750Z,64.07
2023-05-18T20:31:46.244Z,64.64
2023-05-18T20:33:49.578Z,65.21
2023-05-18T20:35:52.983Z,65.56
2023-05-18T20:37:57.560Z,65.04
2023-05-18T20:40:02.725Z,65.94
2023-05-18T20:42:06.700Z,67.86
2023-05-18T20:44:11.345Z,67.66
2023-05-18T20:46:14.603Z,69.15
2023-05-18T20:48:24.668Z,68.63
2023-05-18T20:50:27.851Z,69.26
2023-05-18T20:52:31.217Z,68.46
2023-05-18T20:54:34.470Z,67.34
2023-05-18T20:56:39.041Z,67.77
2023-05-18T20:58:49.691Z,68.93
2023-05-18T21:00:55.559Z,69.08
2023-05-18T21:02:58.775Z,69.69
2023-05-18T21:05:02.788Z,70.16
2023-05-18T21:07:06.272Z,71.28
2023-05-18T21:09:09.610Z,72.10
2023-05-18T21:11:12.696Z,72.39
2023-05-18T21:13:17.244Z,72.54
2023-05-18T21:15:20.464Z,72.58
2023-05-18T21:17:23.630Z,72.22
2023-05-18T21:19:26.826Z,72.63
2023-05-18T21:21:29.956Z,72.71
2023-05-18T21:23:33.100Z,73.98
2023-05-18T21:25:36.180Z,74.31
2023-05-18T21:27:39.432Z,74.39
2023-05-18T21:29:44.118Z,74.54
2023-05-18T21:31:48.806Z,73.54
2023-05-18T21:33:52.714Z,73.95
2023-05-18T21:35:55.913Z,73.50
2023-05-18T21:37:58.967Z,71.41
2023-05-18T21:40:02.467Z,70.11
2023-05-18T21:42:05.988Z,69.94
2023-05-18T21:44:09.440Z,69.69
2023-05-18T21:46:13.921Z,69.64
2023-05-18T21:48:17.007Z,69.25
2023-05-18T21:50:20.064Z,66.77
2023-05-18T21:52:23.486Z,66.62
2023-05-18T21:54:26.506Z,64.56
2023-05-18T21:56:30.118Z,63.45
2023-05-18T21:58:33.140Z,64.34
2023-05-18T22:00:37.672Z,63.18
2023-05-18T22:02:42.319Z,64.10
2023-05-18T22:04:45.739Z,63.74
2023-05-18T22:06:48.802Z,64.06
2023-05-18T22:08:52.799Z,63.82
2023-05-18T22:10:55.927Z,63.39
2023-05-18T22:12:58.971Z,64.26
2023-05-18T22:15:02.122Z,63.16
2023-05-18T22:17:06.607Z,63.97
2023-05-18T22:19:11.165Z,64.19
2023-05-18T22:21:14.417Z,64.24
2023-05-18T22:23:17.469Z,64.08
2023-05-18T22:25:20.662Z,64.70
2023-05-18T22:27:23.800Z,64.16
2023-05-18T22:29:27.198Z,63.74
2023-05-18T22:31:30.522Z,64.46
2023-05-18T22:33:33.638Z,64.69
2023-05-18T22:35:38.089Z,65.35
2023-05-18T22:37:41.247Z,65.50
2023-05-18T22:39:44.481Z,65.26
2023-05-18T22:41:47.587Z,65.45
2023-05-18T22:43:50.619Z,65.72
2023-05-18T22:45:54.150Z,65.79
2023-05-18T22:47:57.286Z,65.80
2023-05-18T22:50:00.451Z,65.54
2023-05-18T22:52:06.710Z,65.82
2023-05-18T22:54:09.881Z,66.15
2023-05-18T22:56:13.066Z,66.21
2023-05-18T22:58:16.217Z,65.93
2023-05-18T23:00:19.523Z,65.69
2023-05-18T23:02:22.555Z,66.13
2023-05-18T23:04:25.923Z,66.39
2023-05-18T23:06:31.618Z,67.01
2023-05-18T23:08:37.116Z,66.84
2023-05-18T23:10:41.949Z,67.43
2023-05-18T23:12:45.757Z,67.78
2023-05-18T23:14:49.733Z,66.99
2023-05-18T23:16:53.620Z,68.36
2023-05-18T23:18:58.711Z,67.18
2023-05-18T23:21:02.768Z,68.36
2023-05-18T23:23:05.863Z,68.01
2023-05-18T23:25:11.146Z,67.68
2023-05-18T23:27:14.200Z,68.03
2023-05-18T23:29:17.344Z,68.46
2023-05-18T23:31:22.131Z,68.06
2023-05-18T23:33:26.014Z,69.04
2023-05-18T23:35:30.125Z,69.06
2023-05-18T23:37:33.654Z,69.10
2023-05-18T23:39:37.069Z,68.30
2023-05-18T23:41:41.594Z,68.84
2023-05-18T23:43:45.342Z,68.70
2023-05-18T23:45:49.065Z,68.68
2023-05-18T23:47:53.148Z,69.04
2023-05-18T23:49:57.046Z,69.26
2023-05-18T23:52:03.184Z,70.14
2023-05-18T23:54:07.477Z,69.58
2023-05-18T23:56:12.310Z,69.00
2023-05-18T23:58:17.304Z,70.59
